Time;durP1;ratioP1;P1;durP2;ratioP2;P2;SDS_P1;SDS_P2;PMS_P1;PMS_P2;Temp;Humidity;BMP_temperature;BMP_pressure;BME280_temperature;BME280_humidity;BME280_pressure;Samples;Min_cycle;Max_cycle;Signal;HPM_P1;HPM_P2
2020/12/13 00:01:52;;;;;;;21.77;18.47;;;11.30;93.40;;;;;;5068112;28;20653;-49
2020/12/13 00:04:19;;;;;;;21.20;18.90;;;11.30;93.50;;;;;;5068513;28;20658;-49
2020/12/13 00:06:45;;;;;;;20.90;17.57;;;11.20;93.60;;;;;;5067601;28;20662;-49
2020/12/13 00:09:13;;;;;;;21.43;18.63;;;11.20;93.60;;;;;;5068270;28;20679;-50
2020/12/13 00:11:40;;;;;;;21.83;18.63;;;11.20;93.70;;;;;;5083291;28;20659;-51
2020/12/13 00:14:07;;;;;;;22.87;17.43;;;11.20;93.70;;;;;;5087576;28;21230;-51
2020/12/13 00:16:33;;;;;;;19.27;17.30;;;11.20;93.80;;;;;;5068800;28;21169;-49
2020/12/13 00:19:01;;;;;;;24.00;18.87;;;11.30;93.90;;;;;;5067837;28;20628;-52
2020/12/13 00:21:27;;;;;;;22.73;19.07;;;11.30;93.90;;;;;;5068419;28;20706;-51
2020/12/13 00:23:54;;;;;;;20.30;18.20;;;11.30;93.90;;;;;;5067883;28;20659;-52
2020/12/13 00:26:22;;;;;;;21.30;18.10;;;11.30;93.80;;;;;;5067516;28;20730;-52
2020/12/13 00:28:49;;;;;;;24.50;20.17;;;11.30;93.80;;;;;;5066748;28;20641;-51
2020/12/13 00:31:16;;;;;;;25.37;20.50;;;11.40;93.70;;;;;;5087439;28;20660;-53
2020/12/13 00:33:43;;;;;;;25.20;20.30;;;11.40;93.60;;;;;;5087436;28;20774;-52
2020/12/13 00:36:09;;;;;;;26.17;20.00;;;11.40;93.60;;;;;;5070274;28;20625;-52
2020/12/13 00:38:36;;;;;;;26.37;19.83;;;11.40;93.70;;;;;;5069121;28;20692;-50
2020/12/13 00:41:03;;;;;;;26.83;21.37;;;11.40;93.70;;;;;;5067693;28;20679;-50
2020/12/13 00:43:30;;;;;;;29.73;21.70;;;11.40;93.80;;;;;;5068060;28;20689;-50
2020/12/13 00:45:59;;;;;;;23.67;20.20;;;11.40;93.80;;;;;;5067604;28;20621;-50
2020/12/13 00:48:25;;;;;;;31.13;22.17;;;11.40;93.80;;;;;;5068331;28;21037;-50
2020/12/13 00:50:52;;;;;;;26.17;20.47;;;11.40;93.80;;;;;;5068149;28;21032;-50
2020/12/13 00:53:19;;;;;;;26.63;20.80;;;11.40;93.80;;;;;;5069062;28;20724;-50
2020/12/13 00:55:46;;;;;;;26.07;22.93;;;11.40;93.90;;;;;;5067964;28;20653;-50
2020/12/13 00:58:13;;;;;;;31.23;24.20;;;11.50;93.90;;;;;;5067950;28;20629;-49
2020/12/13 01:00:41;;;;;;;28.10;22.17;;;11.50;93.90;;;;;;5075578;28;21073;-50
2020/12/13 01:03:07;;;;;;;27.43;21.40;;;11.50;93.90;;;;;;5074681;28;20657;-51
2020/12/13 01:05:34;;;;;;;28.40;22.63;;;11.50;93.80;;;;;;5067975;28;20617;-50
2020/12/13 01:08:01;;;;;;;32.10;24.20;;;11.50;93.90;;;;;;5071402;28;20621;-50
2020/12/13 01:10:28;;;;;;;33.60;25.57;;;11.50;93.80;;;;;;5071939;28;20625;-50
2020/12/13 01:12:54;;;;;;;31.97;24.27;;;11.50;93.80;;;;;;5071549;28;20722;-50
2020/12/13 01:15:21;;;;;;;29.30;22.57;;;11.50;93.90;;;;;;5072427;28;20706;-49
2020/12/13 01:17:49;;;;;;;29.07;22.70;;;11.50;93.90;;;;;;5070892;28;20698;-50
2020/12/13 01:20:16;;;;;;;37.27;25.67;;;11.50;94.00;;;;;;5071127;28;20711;-49
2020/12/13 01:22:43;;;;;;;39.83;25.80;;;11.50;93.90;;;;;;5067444;28;21303;-49
2020/12/13 01:25:10;;;;;;;35.57;26.67;;;11.50;93.90;;;;;;5071878;28;20653;-49
2020/12/13 01:27:36;;;;;;;32.87;24.70;;;11.50;93.90;;;;;;5071183;28;20690;-49
2020/12/13 01:30:04;;;;;;;40.40;25.27;;;11.50;93.80;;;;;;5071844;28;20757;-50
2020/12/13 01:32:31;;;;;;;65.20;28.90;;;11.50;93.90;;;;;;5078832;28;20668;-49
2020/12/13 01:34:58;;;;;;;44.80;28.50;;;11.40;93.90;;;;;;5070979;28;20677;-50
2020/12/13 01:37:25;;;;;;;38.87;27.73;;;11.40;93.90;;;;;;5071463;28;20628;-49
2020/12/13 01:39:52;;;;;;;40.70;29.30;;;11.40;94.00;;;;;;5071449;28;20716;-50
2020/12/13 01:42:18;;;;;;;37.10;26.23;;;11.40;94.10;;;;;;5071436;28;21246;-50
2020/12/13 01:44:45;;;;;;;40.47;27.73;;;11.40;94.00;;;;;;5071073;28;21075;-49
2020/12/13 01:47:12;;;;;;;44.30;28.43;;;11.50;94.10;;;;;;5072377;28;20625;-50
2020/12/13 01:49:41;;;;;;;39.20;29.23;;;11.50;94.00;;;;;;5071471;28;20659;-49
2020/12/13 01:54:58;;;;;;;41.60;28.00;;;11.50;94.20;;;;;;5071572;28;20637;-50
2020/12/13 01:57:25;;;;;;;43.20;27.17;;;11.50;94.00;;;;;;5071276;28;20624;-49
2020/12/13 01:59:52;;;;;;;36.83;26.83;;;11.50;94.10;;;;;;5071829;28;20863;-50
2020/12/13 02:02:22;;;;;;;38.37;26.70;;;11.50;94.20;;;;;;5072034;28;20718;-48
2020/12/13 02:04:50;;;;;;;42.23;27.33;;;11.50;94.20;;;;;;5071820;28;20636;-49
2020/12/13 02:07:17;;;;;;;47.77;28.87;;;11.50;94.10;;;;;;5071362;28;20625;-49
2020/12/13 02:09:44;;;;;;;42.53;28.13;;;11.60;94.20;;;;;;5071402;28;21007;-50
2020/12/13 02:12:11;;;;;;;46.00;29.77;;;11.50;94.20;;;;;;5070695;28;20676;-49
2020/12/13 02:14:38;;;;;;;44.90;29.17;;;11.60;94.30;;;;;;5073061;28;20799;-49
2020/12/13 02:17:04;;;;;;;41.87;28.10;;;11.60;94.10;;;;;;5070588;28;20671;-49
2020/12/13 02:19:31;;;;;;;44.30;28.80;;;11.60;94.20;;;;;;5052690;28;20715;-50
2020/12/13 02:21:58;;;;;;;46.37;29.03;;;11.60;94.20;;;;;;5070602;28;20661;-49
2020/12/13 02:24:25;;;;;;;42.77;29.40;;;11.60;94.30;;;;;;5084752;28;20632;-50
2020/12/13 02:26:52;;;;;;;38.17;28.00;;;11.50;94.30;;;;;;5091440;28;20627;-50
2020/12/13 02:29:19;;;;;;;52.30;32.63;;;11.50;94.50;;;;;;5091134;28;20693;-50
2020/12/13 02:31:46;;;;;;;45.53;30.83;;;11.50;94.40;;;;;;5086541;28;20652;-50
2020/12/13 02:34:12;;;;;;;43.77;30.20;;;11.50;94.40;;;;;;5071876;28;20625;-50
2020/12/13 02:36:39;;;;;;;43.00;32.07;;;11.60;94.50;;;;;;5070491;28;20719;-50
2020/12/13 02:39:06;;;;;;;45.40;29.60;;;11.60;94.40;;;;;;5071133;28;20622;-49
2020/12/13 02:41:34;;;;;;;42.73;30.77;;;11.60;94.40;;;;;;5070375;28;20656;-51
2020/12/13 02:44:00;;;;;;;48.20;29.03;;;11.50;94.50;;;;;;5071167;28;20776;-50
2020/12/13 02:46:27;;;;;;;49.47;31.83;;;11.40;94.70;;;;;;5071749;28;21238;-49
2020/12/13 02:48:54;;;;;;;46.90;32.20;;;11.40;94.80;;;;;;5071704;28;20621;-50
2020/12/13 02:51:21;;;;;;;44.43;33.60;;;11.40;94.90;;;;;;5070789;28;20653;-50
2020/12/13 02:53:47;;;;;;;45.47;32.80;;;11.40;94.90;;;;;;5070214;28;20629;-50
2020/12/13 02:56:14;;;;;;;52.07;31.00;;;11.40;94.90;;;;;;5070236;28;20657;-51
2020/12/13 02:58:42;;;;;;;39.77;28.50;;;11.40;94.90;;;;;;5070037;28;20637;-49
2020/12/13 03:01:10;;;;;;;54.20;32.70;;;11.50;95.00;;;;;;5069957;28;20657;-49
2020/12/13 03:03:37;;;;;;;48.87;33.07;;;11.50;94.80;;;;;;5086881;28;20632;-49
2020/12/13 03:06:03;;;;;;;46.37;31.97;;;11.50;94.90;;;;;;5090163;28;20677;-51
2020/12/13 03:08:30;;;;;;;50.73;33.40;;;11.50;94.80;;;;;;5083791;28;21243;-50
2020/12/13 03:10:57;;;;;;;42.73;31.40;;;11.50;94.80;;;;;;5067332;28;20629;-50
2020/12/13 03:13:24;;;;;;;47.97;30.47;;;11.60;94.90;;;;;;5068552;28;20667;-49
2020/12/13 03:15:51;;;;;;;52.57;34.63;;;11.60;94.90;;;;;;5068428;28;20645;-49
2020/12/13 03:18:18;;;;;;;57.83;34.40;;;11.60;94.80;;;;;;5056075;28;20782;-49
2020/12/13 03:20:45;;;;;;;55.27;33.33;;;11.60;94.70;;;;;;5069383;28;20625;-49
2020/12/13 03:23:11;;;;;;;49.07;34.50;;;11.60;94.70;;;;;;5068722;28;20672;-49
2020/12/13 03:25:38;;;;;;;57.30;36.03;;;11.60;94.60;;;;;;5069226;28;20661;-49
2020/12/13 03:28:05;;;;;;;55.30;35.13;;;11.60;94.50;;;;;;5068906;28;20633;-48
2020/12/13 03:30:32;;;;;;;66.77;38.10;;;11.60;94.60;;;;;;5069861;28;21299;-47
2020/12/13 03:32:59;;;;;;;61.20;37.30;;;11.70;94.60;;;;;;5068717;28;20657;-49
2020/12/13 03:35:26;;;;;;;72.07;35.80;;;11.70;94.60;;;;;;5069073;28;20649;-50
2020/12/13 03:37:53;;;;;;;54.13;37.23;;;11.60;94.60;;;;;;5068334;28;20710;-49
2020/12/13 03:40:19;;;;;;;52.13;34.87;;;11.60;94.60;;;;;;5068884;28;20641;-49
2020/12/13 03:42:46;;;;;;;55.57;31.73;;;11.60;94.80;;;;;;5069019;28;20694;-50
2020/12/13 03:45:13;;;;;;;40.50;31.90;;;11.50;95.00;;;;;;5069167;28;20682;-48
2020/12/13 03:47:40;;;;;;;56.90;37.67;;;11.50;95.10;;;;;;5068476;28;21001;-49
2020/12/13 03:50:07;;;;;;;47.17;33.53;;;11.50;95.20;;;;;;5068280;28;20633;-49
2020/12/13 03:52:34;;;;;;;47.50;34.17;;;11.50;95.20;;;;;;5068596;28;21236;-48
2020/12/13 03:55:01;;;;;;;52.83;34.50;;;11.50;95.20;;;;;;5068611;28;20706;-49
2020/12/13 03:57:27;;;;;;;46.37;33.30;;;11.50;95.20;;;;;;5067934;28;20625;-49
2020/12/13 03:59:54;;;;;;;55.17;32.03;;;11.60;95.10;;;;;;5067448;28;20680;-50
2020/12/13 04:02:21;;;;;;;45.77;34.60;;;11.50;95.10;;;;;;5067699;28;21252;-49
2020/12/13 04:04:48;;;;;;;43.47;30.53;;;11.60;95.10;;;;;;5067990;28;20624;-49
2020/12/13 04:07:15;;;;;;;41.87;28.43;;;11.50;95.10;;;;;;5067943;28;21241;-49
2020/12/13 04:09:42;;;;;;;43.20;31.20;;;11.40;95.20;;;;;;5066355;28;21134;-50
2020/12/13 04:12:09;;;;;;;40.40;30.03;;;11.40;95.40;;;;;;5068023;28;21211;-49
2020/12/13 04:14:35;;;;;;;40.33;28.60;;;11.40;95.50;;;;;;5067903;28;20686;-49
2020/12/13 04:17:02;;;;;;;42.27;30.67;;;11.40;95.40;;;;;;5069379;28;20700;-50
2020/12/13 04:19:31;;;;;;;43.43;31.13;;;11.40;95.50;;;;;;5068829;28;20629;-49
2020/12/13 04:21:58;;;;;;;48.07;35.30;;;11.40;95.60;;;;;;5088864;28;20668;-49
2020/12/13 04:24:25;;;;;;;42.37;30.77;;;11.40;95.50;;;;;;5079881;28;20695;-50
2020/12/13 04:26:52;;;;;;;39.43;29.90;;;11.40;95.60;;;;;;5068812;28;20630;-50
2020/12/13 04:29:19;;;;;;;41.13;30.87;;;11.40;95.50;;;;;;5068239;28;21197;-50
2020/12/13 04:31:46;;;;;;;44.83;31.40;;;11.50;95.60;;;;;;5069200;28;20710;-50
2020/12/13 04:34:12;;;;;;;38.40;30.80;;;11.40;95.50;;;;;;5066584;28;20617;-50
2020/12/13 04:36:39;;;;;;;46.20;33.20;;;11.50;95.50;;;;;;5049279;28;21233;-49
2020/12/13 04:39:06;;;;;;;39.43;30.13;;;11.50;95.50;;;;;;5069738;28;20632;-50
2020/12/13 04:41:35;;;;;;;46.77;31.23;;;11.60;95.50;;;;;;5068129;28;20706;-49
2020/12/13 04:44:02;;;;;;;44.27;31.83;;;11.50;95.30;;;;;;5068404;28;20636;-49
2020/12/13 04:46:29;;;;;;;45.57;31.30;;;11.60;95.30;;;;;;5068705;28;20628;-50
2020/12/13 04:48:56;;;;;;;46.33;32.23;;;11.50;95.30;;;;;;5068397;28;20621;-50
2020/12/13 04:51:25;;;;;;;55.30;36.47;;;11.50;95.30;;;;;;5068752;28;20648;-50
2020/12/13 04:53:56;;;;;;;76.27;34.93;;;11.50;95.40;;;;;;5068874;28;20629;-49
2020/12/13 04:56:23;;;;;;;46.97;30.90;;;11.40;95.40;;;;;;5069331;28;21041;-50
2020/12/13 04:58:51;;;;;;;40.90;31.80;;;11.40;95.50;;;;;;5068314;28;20625;-50
2020/12/13 05:01:18;;;;;;;41.90;32.60;;;11.50;95.80;;;;;;5068712;28;20661;-49
2020/12/13 05:03:45;;;;;;;42.80;31.50;;;11.40;95.40;;;;;;5068399;28;20750;-50
2020/12/13 05:06:12;;;;;;;43.13;32.00;;;11.40;95.60;;;;;;5065598;28;20641;-49
2020/12/13 05:08:39;;;;;;;51.93;33.80;;;11.40;95.60;;;;;;5062703;28;20637;-49
2020/12/13 05:11:05;;;;;;;39.17;30.90;;;11.40;95.60;;;;;;5072540;28;20624;-50
2020/12/13 05:13:32;;;;;;;39.17;30.17;;;11.40;95.70;;;;;;5068094;28;20687;-49
2020/12/13 05:16:04;;;;;;;44.33;34.77;;;11.40;95.70;;;;;;5057970;28;20687;-49
2020/12/13 05:18:30;;;;;;;42.27;32.70;;;11.40;95.70;;;;;;5067278;28;20625;-49
2020/12/13 05:20:57;;;;;;;46.30;31.13;;;11.40;95.70;;;;;;5068012;28;20629;-48
2020/12/13 05:23:24;;;;;;;39.43;31.23;;;11.50;95.70;;;;;;5068017;28;20625;-53
2020/12/13 05:25:51;;;;;;;37.57;29.53;;;11.50;95.80;;;;;;5062385;28;21242;-49
2020/12/13 05:28:17;;;;;;;39.93;30.13;;;11.50;95.80;;;;;;5071976;28;20637;-49
2020/12/13 05:30:46;;;;;;;45.80;32.00;;;11.40;95.70;;;;;;5099731;22;20668;-57
2020/12/13 05:33:18;;;;;;;37.73;28.97;;;11.50;95.90;;;;;;5069578;28;20629;-57
2020/12/13 05:35:45;;;;;;;39.63;32.77;;;11.50;95.90;;;;;;5068973;28;21007;-57
2020/12/13 05:38:12;;;;;;;40.63;30.00;;;11.50;95.80;;;;;;5067685;28;21018;-58
2020/12/13 05:40:39;;;;;;;35.63;29.43;;;11.50;95.80;;;;;;5059224;28;21138;-57
2020/12/13 05:43:10;;;;;;;39.20;29.97;;;11.50;95.80;;;;;;5052022;28;20622;-57
2020/12/13 05:51:23;;;;;;;33.40;26.60;;;11.50;95.80;;;;;;5044374;28;20716;-57
2020/12/13 05:53:53;;;;;;;33.03;28.80;;;11.50;95.70;;;;;;5050987;28;20667;-56
2020/12/13 05:56:20;;;;;;;32.07;28.57;;;11.50;95.80;;;;;;5052741;28;21062;-55
2020/12/13 05:58:46;;;;;;;34.63;26.17;;;11.50;95.90;;;;;;5052578;28;20625;-58
2020/12/13 06:01:13;;;;;;;34.60;26.57;;;11.40;96.00;;;;;;5052877;28;20657;-55
2020/12/13 06:03:41;;;;;;;29.67;24.27;;;11.40;96.00;;;;;;5052471;28;20668;-57
2020/12/13 06:06:10;;;;;;;29.67;26.20;;;11.40;96.00;;;;;;5052577;28;20626;-55
2020/12/13 06:09:02;;;;;;;30.27;26.97;;;11.40;96.10;;;;;;5053727;28;20719;-56
2020/12/13 06:11:34;;;;;;;31.10;22.00;;;11.40;96.20;;;;;;5052160;28;20693;-55
2020/12/13 06:14:01;;;;;;;30.13;25.60;;;11.40;96.10;;;;;;5050605;28;20704;-55
2020/12/13 06:16:27;;;;;;;28.07;24.90;;;11.30;96.10;;;;;;5051933;28;21220;-55
2020/12/13 06:18:55;;;;;;;29.53;24.97;;;11.40;96.20;;;;;;5052077;28;21193;-55
2020/12/13 06:21:22;;;;;;;31.60;26.07;;;11.40;96.20;;;;;;5044586;28;21085;-55
2020/12/13 06:23:48;;;;;;;28.97;23.47;;;11.40;96.20;;;;;;5051696;28;21182;-57
2020/12/13 06:26:15;;;;;;;29.40;26.10;;;11.40;96.20;;;;;;5051647;28;20672;-56
2020/12/13 06:28:42;;;;;;;26.30;23.37;;;11.40;96.20;;;;;;5052032;28;20696;-57
2020/12/13 06:31:09;;;;;;;26.50;23.60;;;11.40;96.10;;;;;;5052889;28;20668;-56
2020/12/13 06:33:41;;;;;;;24.93;22.30;;;11.50;96.20;;;;;;5052060;28;21174;-56
2020/12/13 06:36:09;;;;;;;24.10;21.60;;;11.40;96.10;;;;;;5048896;28;20653;-56
2020/12/13 06:38:36;;;;;;;24.57;21.97;;;11.40;96.00;;;;;;5051728;28;20660;-56
2020/12/13 06:41:09;;;;;;;24.60;22.00;;;11.40;96.00;;;;;;5051346;28;21136;-56
2020/12/13 06:43:40;;;;;;;25.30;22.50;;;11.40;96.00;;;;;;5052010;28;20618;-56
2020/12/13 06:46:11;;;;;;;22.73;20.20;;;11.40;96.10;;;;;;5053657;28;20622;-56
2020/12/13 06:48:37;;;;;;;25.67;21.43;;;11.40;96.00;;;;;;5044768;28;20622;-56
2020/12/13 06:51:09;;;;;;;24.17;21.60;;;11.50;96.00;;;;;;5051495;28;21281;-56
2020/12/13 06:53:36;;;;;;;22.30;20.13;;;11.50;95.90;;;;;;5045556;28;20649;-56
2020/12/13 06:56:09;;;;;;;25.97;21.60;;;11.50;95.80;;;;;;5051565;28;20680;-55
2020/12/13 06:58:45;;;;;;;21.53;19.20;;;11.50;96.00;;;;;;5043770;28;20664;-55
2020/12/13 07:01:16;;;;;;;22.00;19.47;;;11.50;95.60;;;;;;5051654;28;21204;-55
2020/12/13 07:03:43;;;;;;;20.50;18.40;;;11.50;95.60;;;;;;5044072;28;20688;-56
2020/12/13 07:06:17;;;;;;;20.60;18.40;;;11.50;95.60;;;;;;5051293;28;20665;-56
2020/12/13 07:08:47;;;;;;;20.30;17.00;;;11.50;95.70;;;;;;5051433;28;20622;-55
2020/12/13 07:11:14;;;;;;;22.40;18.43;;;11.50;95.70;;;;;;5050990;28;20650;-56
2020/12/13 07:13:43;;;;;;;21.60;18.57;;;11.50;95.60;;;;;;5043367;28;20622;-56
2020/12/13 07:16:13;;;;;;;22.37;18.43;;;11.50;95.60;;;;;;5050901;28;20654;-55
2020/12/13 07:18:44;;;;;;;19.93;17.83;;;11.40;95.60;;;;;;5051109;28;20669;-56
2020/12/13 07:21:15;;;;;;;21.17;19.13;;;11.30;95.80;;;;;;5051152;28;20665;-55
2020/12/13 07:23:42;;;;;;;19.83;17.77;;;11.30;96.00;;;;;;5052082;28;21000;-56
2020/12/13 07:26:09;;;;;;;18.50;16.60;;;11.30;96.10;;;;;;5050717;28;20622;-56
2020/12/13 07:28:35;;;;;;;19.37;17.30;;;11.30;96.10;;;;;;5050544;28;21028;-56
2020/12/13 07:31:03;;;;;;;18.30;16.50;;;11.30;96.10;;;;;;5050884;28;21213;-55
2020/12/13 07:33:30;;;;;;;17.53;15.77;;;11.30;96.10;;;;;;5050508;28;21046;-56
2020/12/13 07:35:57;;;;;;;19.50;17.40;;;11.30;96.20;;;;;;5050136;28;20680;-56
2020/12/13 07:38:25;;;;;;;16.77;15.17;;;11.30;96.30;;;;;;5050554;28;20653;-56
2020/12/13 07:40:52;;;;;;;17.87;15.93;;;11.30;96.30;;;;;;5050531;28;20662;-56
2020/12/13 07:43:19;;;;;;;20.80;16.37;;;11.40;96.30;;;;;;5049513;28;20665;-55
2020/12/13 07:45:46;;;;;;;17.07;14.47;;;11.30;96.10;;;;;;5049581;28;21159;-56
2020/12/13 07:48:13;;;;;;;17.03;15.37;;;11.40;96.20;;;;;;5050235;28;20622;-56
2020/12/13 07:50:44;;;;;;;16.07;14.47;;;11.30;96.10;;;;;;5050117;28;20662;-56
2020/12/13 07:53:11;;;;;;;15.83;14.00;;;11.30;96.10;;;;;;5050021;28;20630;-56
2020/12/13 07:55:43;;;;;;;17.30;14.50;;;11.30;96.20;;;;;;5050104;28;20622;-56
2020/12/13 07:58:09;;;;;;;17.47;15.07;;;11.40;96.30;;;;;;5053226;28;20670;-56
2020/12/13 08:00:36;;;;;;;15.03;13.43;;;11.30;96.30;;;;;;5053362;28;20677;-56
2020/12/13 08:03:04;;;;;;;20.30;16.57;;;11.40;96.40;;;;;;5051258;28;20630;-56
2020/12/13 08:05:31;;;;;;;18.40;16.00;;;11.40;96.30;;;;;;5050532;28;20905;-56
2020/12/13 08:07:59;;;;;;;15.33;13.47;;;11.40;96.30;;;;;;5050287;28;20630;-56
2020/12/13 08:10:28;;;;;;;15.73;14.13;;;11.40;96.20;;;;;;5050325;28;20708;-56
2020/12/13 08:12:56;;;;;;;15.97;14.03;;;11.30;96.10;;;;;;5049820;28;20646;-56
2020/12/13 08:15:22;;;;;;;16.53;14.20;;;11.40;96.10;;;;;;5051171;28;20707;-56
2020/12/13 08:17:59;;;;;;;14.30;12.80;;;11.40;96.10;;;;;;5049468;28;20662;-56
2020/12/13 08:20:27;;;;;;;14.43;12.80;;;11.40;96.40;;;;;;5050150;28;20689;-56
2020/12/13 08:22:54;;;;;;;14.00;12.60;;;11.30;96.10;;;;;;5048272;28;20641;-57
2020/12/13 08:25:20;;;;;;;15.17;13.67;;;11.30;96.10;;;;;;5050171;28;20634;-57
2020/12/13 08:27:47;;;;;;;14.73;13.30;;;11.40;96.20;;;;;;5050262;28;20626;-57
2020/12/13 08:30:18;;;;;;;14.53;12.20;;;11.30;96.20;;;;;;5069280;28;20661;-56
2020/12/13 08:32:45;;;;;;;13.60;12.30;;;11.40;96.20;;;;;;5068982;28;20621;-57
2020/12/13 08:35:12;;;;;;;19.50;13.03;;;11.40;96.10;;;;;;5049785;28;20618;-57
2020/12/13 08:37:39;;;;;;;13.30;11.43;;;11.50;96.20;;;;;;5045937;28;20650;-56
2020/12/13 08:40:08;;;;;;;13.57;12.17;;;11.50;96.00;;;;;;5051037;28;20654;-57
2020/12/13 08:42:35;;;;;;;13.80;12.20;;;11.40;96.00;;;;;;5050843;28;21023;-57
2020/12/13 08:45:02;;;;;;;13.73;12.33;;;11.40;96.00;;;;;;5051250;28;20626;-55
2020/12/13 08:47:31;;;;;;;14.60;11.60;;;11.40;96.10;;;;;;5050583;28;20614;-55
2020/12/13 08:49:58;;;;;;;13.00;11.70;;;11.40;96.30;;;;;;5056132;28;20657;-57
2020/12/13 08:52:26;;;;;;;12.63;11.20;;;11.40;96.00;;;;;;5061134;28;20633;-57
2020/12/13 08:54:53;;;;;;;12.10;10.80;;;11.40;96.00;;;;;;5052970;28;20626;-53
2020/12/13 08:57:29;;;;;;;13.23;11.90;;;11.30;96.00;;;;;;5050126;28;20654;-55
2020/12/13 09:00:05;;;;;;;13.17;11.80;;;11.30;96.00;;;;;;5050449;28;20711;-57
2020/12/13 09:02:33;;;;;;;14.90;12.10;;;11.40;96.10;;;;;;5051146;28;20642;-56
2020/12/13 09:05:00;;;;;;;11.53;10.33;;;11.40;96.10;;;;;;5049446;28;20683;-57
2020/12/13 09:07:31;;;;;;;11.30;9.80;;;11.40;96.00;;;;;;5049653;28;20704;-55
2020/12/13 09:10:10;;;;;;;13.40;12.10;;;11.40;96.00;;;;;;5049040;28;20728;-55
2020/12/13 09:12:38;;;;;;;13.50;11.40;;;11.50;96.00;;;;;;5048461;28;21046;-56
2020/12/13 09:15:09;;;;;;;15.80;11.30;;;11.50;95.90;;;;;;5049433;28;21041;-56
2020/12/13 09:17:37;;;;;;;12.57;11.30;;;11.40;95.70;;;;;;5046460;28;20662;-56
2020/12/13 09:20:04;;;;;;;12.03;10.90;;;11.50;95.80;;;;;;5047465;28;21017;-56
2020/12/13 09:22:31;;;;;;;14.33;11.97;;;11.50;95.80;;;;;;5048780;28;20664;-57
2020/12/13 09:24:58;;;;;;;11.90;10.70;;;11.50;95.80;;;;;;5049343;28;20629;-59
2020/12/13 09:27:26;;;;;;;11.67;10.57;;;11.50;95.90;;;;;;5049898;28;20618;-57
2020/12/13 09:29:52;;;;;;;11.50;10.40;;;11.50;95.80;;;;;;5053432;28;20764;-58
2020/12/13 09:32:20;;;;;;;12.40;11.20;;;11.50;95.80;;;;;;5054377;28;20618;-58
2020/12/13 09:34:48;;;;;;;12.23;11.03;;;11.50;95.80;;;;;;5052240;28;20987;-57
2020/12/13 09:37:15;;;;;;;12.00;10.80;;;11.50;95.70;;;;;;5052988;28;20703;-55
2020/12/13 09:39:42;;;;;;;13.33;11.80;;;11.50;95.60;;;;;;5053299;28;20629;-54
2020/12/13 09:42:09;;;;;;;13.77;11.60;;;11.50;95.70;;;;;;5054017;28;21176;-54
2020/12/13 09:44:36;;;;;;;11.20;10.07;;;11.60;95.90;;;;;;5052647;28;21169;-54
2020/12/13 09:47:03;;;;;;;11.03;10.03;;;11.70;95.70;;;;;;5053005;28;20630;-54
2020/12/13 09:49:30;;;;;;;11.57;10.47;;;11.80;95.50;;;;;;5056576;28;20626;-54
2020/12/13 09:51:58;;;;;;;11.23;10.23;;;11.80;95.20;;;;;;5052808;28;20788;-57
2020/12/13 09:54:25;;;;;;;11.63;10.57;;;11.80;94.70;;;;;;5052569;28;20760;-57
2020/12/13 09:56:51;;;;;;;10.77;8.40;;;11.80;94.80;;;;;;5052656;28;21251;-57
2020/12/13 09:59:18;;;;;;;9.47;8.53;;;11.80;94.80;;;;;;5053768;28;20626;-58
2020/12/13 10:01:45;;;;;;;9.07;8.27;;;11.90;94.80;;;;;;5052126;28;20739;-57
2020/12/13 10:04:12;;;;;;;9.87;8.43;;;11.90;94.60;;;;;;5051811;28;20633;-57
2020/12/13 10:07:04;;;;;;;9.77;8.77;;;12.00;94.60;;;;;;5054750;28;20610;-56
2020/12/13 10:09:32;;;;;;;10.77;9.47;;;12.00;94.50;;;;;;5052318;28;20637;-57
2020/12/13 10:11:58;;;;;;;9.60;8.70;;;11.90;94.30;;;;;;5052625;28;20641;-57
2020/12/13 10:14:25;;;;;;;12.40;11.13;;;11.90;94.40;;;;;;5052430;28;20679;-57
2020/12/13 10:16:53;;;;;;;10.57;9.47;;;11.90;94.60;;;;;;5053211;28;21241;-56
2020/12/13 10:19:20;;;;;;;11.63;10.50;;;11.90;94.60;;;;;;5051929;28;20621;-57
2020/12/13 10:21:47;;;;;;;9.00;8.10;;;11.90;94.60;;;;;;5051671;28;20723;-56
2020/12/13 10:24:14;;;;;;;10.53;9.53;;;11.90;94.70;;;;;;5051073;28;20688;-56
2020/12/13 10:26:41;;;;;;;10.13;9.10;;;12.00;94.60;;;;;;5051424;28;20659;-57
2020/12/13 10:29:09;;;;;;;10.03;8.97;;;12.00;94.50;;;;;;5051133;28;20675;-57
2020/12/13 10:31:36;;;;;;;9.80;8.90;;;12.00;94.40;;;;;;5051419;28;21315;-57
2020/12/13 10:34:03;;;;;;;10.50;9.60;;;12.00;94.50;;;;;;5051134;28;20634;-55
2020/12/13 10:36:34;;;;;;;10.77;9.13;;;12.10;94.60;;;;;;5048054;28;20645;-57
2020/12/13 10:39:04;;;;;;;9.70;8.70;;;12.00;94.30;;;;;;5049858;28;20626;-55
2020/12/13 10:41:32;;;;;;;12.03;10.87;;;12.10;94.50;;;;;;5049198;28;21573;-55
2020/12/13 10:43:59;;;;;;;9.80;8.93;;;12.10;94.50;;;;;;5045876;28;20682;-55
2020/12/13 10:46:26;;;;;;;10.20;8.40;;;12.10;94.40;;;;;;5052211;28;20618;-56
2020/12/13 10:48:53;;;;;;;7.43;6.73;;;12.10;94.30;;;;;;5060782;28;20657;-56
2020/12/13 10:51:20;;;;;;;11.13;8.60;;;11.90;93.90;;;;;;5063315;28;20664;-56
2020/12/13 10:53:47;;;;;;;8.60;7.00;;;11.80;94.30;;;;;;5070674;28;20621;-56
2020/12/13 10:56:14;;;;;;;8.53;7.83;;;11.70;94.50;;;;;;5069285;28;20637;-56
2020/12/13 10:58:41;;;;;;;9.73;6.03;;;11.70;94.70;;;;;;5053981;28;20648;-57
2020/12/13 11:01:09;;;;;;;7.73;6.93;;;11.60;94.80;;;;;;5056071;28;20662;-56
2020/12/13 11:03:36;;;;;;;10.93;7.83;;;11.50;94.90;;;;;;5050656;28;20638;-56
2020/12/13 11:06:03;;;;;;;8.80;7.87;;;11.40;95.20;;;;;;5051358;28;20634;-56
2020/12/13 11:08:30;;;;;;;9.87;8.97;;;11.50;95.30;;;;;;5050601;28;20621;-57
2020/12/13 11:10:57;;;;;;;7.97;7.27;;;11.50;95.20;;;;;;5056806;28;20730;-57
2020/12/13 11:13:23;;;;;;;6.90;6.30;;;11.50;94.90;;;;;;5060815;28;20637;-57
2020/12/13 11:15:50;;;;;;;7.43;6.73;;;11.60;94.80;;;;;;5052537;28;20622;-58
2020/12/13 11:18:19;;;;;;;8.77;7.87;;;11.60;94.80;;;;;;5052014;28;20658;-57
2020/12/13 11:20:46;;;;;;;11.63;7.00;;;11.70;95.00;;;;;;5052775;28;20650;-57
2020/12/13 11:23:13;;;;;;;10.33;8.70;;;11.80;94.90;;;;;;5049619;28;20680;-57
2020/12/13 11:25:39;;;;;;;7.67;6.97;;;11.80;94.60;;;;;;5046757;28;21247;-57
2020/12/13 11:28:07;;;;;;;7.77;6.90;;;11.80;94.60;;;;;;5048695;28;20632;-58
2020/12/13 11:30:34;;;;;;;6.40;5.80;;;11.90;95.00;;;;;;5066150;22;21097;-49
2020/12/13 11:33:01;;;;;;;7.90;7.20;;;11.90;94.40;;;;;;5068033;28;20641;-49
2020/12/13 11:35:28;;;;;;;7.93;7.23;;;11.90;94.40;;;;;;5051639;28;20633;-49
2020/12/13 11:37:55;;;;;;;7.03;6.40;;;12.00;94.30;;;;;;5050656;28;21233;-51
2020/12/13 11:40:22;;;;;;;5.60;4.87;;;12.00;94.30;;;;;;5069346;28;20702;-49
2020/12/13 11:42:49;;;;;;;7.30;6.07;;;12.00;94.10;;;;;;5068668;28;21055;-50
2020/12/13 11:45:16;;;;;;;6.30;5.70;;;12.00;94.00;;;;;;5062052;28;20701;-50
2020/12/13 11:47:43;;;;;;;5.67;5.27;;;11.90;93.80;;;;;;5058792;28;21400;-53
2020/12/13 11:50:10;;;;;;;6.13;5.53;;;11.90;93.80;;;;;;5067543;28;21173;-50
2020/12/13 11:52:39;;;;;;;6.40;5.80;;;11.90;93.90;;;;;;5060004;28;20622;-49
2020/12/13 11:55:06;;;;;;;6.20;5.67;;;12.00;94.00;;;;;;5063972;28;20621;-50
2020/12/13 11:57:33;;;;;;;6.10;5.60;;;12.00;93.50;;;;;;5058680;28;20657;-49
2020/12/13 12:00:00;;;;;;;6.20;5.00;;;12.10;93.90;;;;;;5067755;28;20672;-49
2020/12/13 12:02:26;;;;;;;8.10;5.50;;;12.20;93.50;;;;;;5050125;28;20625;-53
2020/12/13 12:04:54;;;;;;;5.87;5.37;;;12.40;93.60;;;;;;5065891;28;20664;-52
2020/12/13 12:07:20;;;;;;;5.80;5.20;;;12.50;93.10;;;;;;5050167;28;20696;-51
2020/12/13 12:09:48;;;;;;;4.70;4.30;;;12.70;93.00;;;;;;5048100;28;20957;-50
2020/12/13 12:12:15;;;;;;;7.37;5.13;;;12.80;92.60;;;;;;5047935;28;20646;-51
2020/12/13 12:14:41;;;;;;;5.30;4.80;;;12.90;91.90;;;;;;5064816;28;21230;-49
2020/12/13 12:17:08;;;;;;;6.80;6.10;;;13.00;91.80;;;;;;5058851;28;20617;-51
2020/12/13 12:19:38;;;;;;;5.53;5.00;;;13.10;91.70;;;;;;5067291;28;20694;-51
2020/12/13 12:22:05;;;;;;;4.90;4.40;;;13.20;91.70;;;;;;5056095;28;20703;-53
2020/12/13 12:24:32;;;;;;;3.97;3.67;;;13.30;91.60;;;;;;5049970;28;20625;-48
2020/12/13 12:27:00;;;;;;;5.03;4.40;;;13.30;91.10;;;;;;5060379;28;20632;-51
2020/12/13 12:29:27;;;;;;;4.77;4.37;;;13.30;90.80;;;;;;5046583;28;21259;-52
2020/12/13 12:31:54;;;;;;;6.47;4.27;;;13.30;90.20;;;;;;5055163;28;20672;-50
2020/12/13 12:34:20;;;;;;;4.17;3.80;;;13.10;90.00;;;;;;5061458;28;20667;-48
2020/12/13 12:36:47;;;;;;;4.07;3.63;;;13.00;90.40;;;;;;5054072;28;20672;-51
2020/12/13 12:39:14;;;;;;;4.47;4.10;;;13.00;90.20;;;;;;5067080;28;20729;-50
2020/12/13 12:41:41;;;;;;;7.23;4.13;;;13.00;90.40;;;;;;5056413;28;20652;-48